Time;durP1;ratioP1;P1;durP2;ratioP2;P2;SDS_P1;SDS_P2;PMS_P1;PMS_P2;Temp;Humidity;BMP_temperature;BMP_pressure;BME280_temperature;BME280_humidity;BME280_pressure;Samples;Min_cycle;Max_cycle;Signal;HPM_P1;HPM_P2
2022/11/18 05:31:11;;;;;;;6.90;1.45;;;9.60;82.50;;;;;;5571470;23;19929;-77
2022/11/18 05:33:37;;;;;;;1.73;1.08;;;9.50;82.60;;;;;;4957352;29;20118;-77
2022/11/18 05:36:12;;;;;;;3.63;1.10;;;9.50;82.50;;;;;;4948812;29;20047;-76
2022/11/18 05:38:38;;;;;;;3.30;1.10;;;9.50;82.40;;;;;;4924136;29;20404;-75
2022/11/18 05:41:05;;;;;;;5.25;1.48;;;9.50;82.40;;;;;;4923987;29;20032;-76
2022/11/18 05:43:31;;;;;;;3.50;1.48;;;9.50;82.40;;;;;;4941166;29;20020;-76
2022/11/18 05:45:57;;;;;;;1.90;1.17;;;9.50;82.40;;;;;;4923813;29;20387;-75
2022/11/18 05:48:23;;;;;;;5.10;1.27;;;9.50;82.40;;;;;;4958680;29;20035;-75
2022/11/18 05:50:51;;;;;;;2.63;1.45;;;9.50;82.40;;;;;;4960148;29;20063;-76
2022/11/18 05:53:19;;;;;;;6.00;1.63;;;9.50;82.40;;;;;;4971922;28;20061;-74
2022/11/18 05:56:09;;;;;;;4.30;1.05;;;9.50;82.40;;;;;;4979372;28;20105;-73
2022/11/18 05:58:35;;;;;;;3.92;0.95;;;9.50;82.50;;;;;;4940529;29;20050;-75
2022/11/18 06:01:04;;;;;;;2.00;1.20;;;9.50;82.60;;;;;;4941170;29;20031;-76
2022/11/18 06:03:31;;;;;;;3.85;0.90;;;9.40;82.60;;;;;;4947622;29;20012;-75
2022/11/18 06:06:00;;;;;;;7.13;1.92;;;9.50;82.50;;;;;;4959530;29;20365;-75
2022/11/18 06:08:31;;;;;;;7.03;1.23;;;9.50;82.50;;;;;;4959757;29;20027;-76
2022/11/18 06:10:57;;;;;;;3.55;1.35;;;9.50;82.50;;;;;;4942339;29;20097;-75
2022/11/18 06:13:32;;;;;;;4.78;1.25;;;9.50;82.60;;;;;;4952871;28;20034;-85
2022/11/18 06:16:01;;;;;;;5.30;1.23;;;9.40;82.70;;;;;;4940192;29;20032;-80
2022/11/18 06:18:30;;;;;;;3.33;1.42;;;9.40;82.60;;;;;;4925286;29;20036;-83
2022/11/18 06:20:59;;;;;;;1.98;1.10;;;9.50;82.60;;;;;;4952055;29;20038;-82
2022/11/18 06:23:27;;;;;;;1.73;1.20;;;9.50;82.60;;;;;;4958979;28;20015;-81
2022/11/18 06:25:54;;;;;;;3.97;1.45;;;9.50;82.50;;;;;;4952108;29;20285;-81
2022/11/18 06:28:21;;;;;;;4.47;1.55;;;9.50;82.50;;;;;;4941895;29;20074;-82
2022/11/18 06:30:47;;;;;;;4.20;1.25;;;9.50;82.40;;;;;;4936903;29;20079;-85
2022/11/18 06:33:15;;;;;;;4.80;1.30;;;9.50;82.30;;;;;;4920834;29;20043;-83
2022/11/18 06:35:41;;;;;;;7.07;1.65;;;9.50;82.40;;;;;;4926618;29;20141;-80
2022/11/18 06:38:07;;;;;;;1.73;1.02;;;9.40;82.40;;;;;;4940315;29;20043;-83
2022/11/18 06:40:34;;;;;;;7.13;2.05;;;9.40;82.30;;;;;;4942458;29;20024;-85
2022/11/18 06:48:36;;;;;;;2.42;0.98;;;9.40;82.30;;;;;;4939404;29;20443;-84
2022/11/18 06:51:06;;;;;;;7.22;1.20;;;9.40;82.10;;;;;;4940791;29;20035;-85
2022/11/18 06:53:33;;;;;;;2.75;1.27;;;9.30;82.10;;;;;;4954118;29;20031;-85
2022/11/18 06:56:08;;;;;;;7.10;1.25;;;9.30;82.10;;;;;;4942585;28;20035;-85
2022/11/18 06:58:34;;;;;;;2.17;1.33;;;9.30;82.10;;;;;;4940616;29;20403;-84
2022/11/18 07:01:20;;;;;;;5.45;1.33;;;9.30;82.30;;;;;;4940296;29;20099;-84
2022/11/18 07:03:47;;;;;;;4.63;1.20;;;9.30;82.30;;;;;;4922307;29;20032;-84
2022/11/18 07:06:16;;;;;;;4.50;1.05;;;9.20;82.20;;;;;;4919992;29;20052;-83
2022/11/18 07:08:42;;;;;;;7.97;1.92;;;9.30;82.30;;;;;;4923557;29;20068;-84
2022/11/18 07:11:11;;;;;;;6.22;1.15;;;9.30;82.40;;;;;;4927240;29;20035;-85
2022/11/18 07:13:37;;;;;;;7.15;2.33;;;9.30;82.20;;;;;;4940941;29;20046;-85
2022/11/18 07:16:03;;;;;;;3.78;1.02;;;9.30;82.20;;;;;;4935413;29;20115;-85
2022/11/18 07:18:44;;;;;;;;;;;;;;;;;;;;;
2022/11/18 07:21:15;;;;;;;7.75;1.55;;;9.30;82.20;;;;;;4910474;29;20036;-86
2022/11/18 07:23:40;;;;;;;;;;;9.20;82.30;;;;;;4937947;29;20080;-85
2022/11/18 07:26:06;;;;;;;4.07;1.52;;;9.20;82.20;;;;;;4939729;28;19978;-84
2022/11/18 07:28:33;;;;;;;2.38;1.30;;;9.30;82.20;;;;;;4937483;29;20020;-85
2022/11/18 07:31:13;;;;;;;3.75;1.52;;;9.30;82.20;;;;;;4946574;29;20059;-84
2022/11/18 07:33:40;;;;;;;4.15;1.77;;;9.20;82.20;;;;;;4958508;29;20035;-85
2022/11/18 07:36:09;;;;;;;3.40;1.17;;;9.20;82.20;;;;;;4957023;28;20066;-85
2022/11/18 07:38:35;;;;;;;3.78;1.50;;;9.20;82.10;;;;;;4940594;29;20059;-85
2022/11/18 07:41:09;;;;;;;5.18;1.50;;;9.30;82.10;;;;;;4958353;29;20395;-84
2022/11/18 07:43:36;;;;;;;8.77;1.55;;;9.30;82.10;;;;;;4940729;29;20392;-84
2022/11/18 07:46:32;;;;;;;2.67;1.42;;;9.20;82.20;;;;;;4958242;29;20046;-82
2022/11/18 07:49:00;;;;;;;4.50;1.20;;;9.30;82.20;;;;;;4945004;29;20043;-86
2022/11/18 07:51:28;;;;;;;10.57;1.63;;;9.30;82.10;;;;;;4958211;29;20095;-84
2022/11/18 07:53:54;;;;;;;6.22;1.30;;;9.30;82.00;;;;;;4975546;28;20033;-85
2022/11/18 07:56:20;;;;;;;2.42;1.60;;;9.30;82.10;;;;;;4954967;28;20034;-84
2022/11/18 07:58:46;;;;;;;7.55;1.52;;;9.30;82.10;;;;;;4938652;29;20028;-84
2022/11/18 08:01:13;;;;;;;7.13;1.60;;;9.30;82.00;;;;;;4935952;29;20034;-82
2022/11/18 08:03:39;;;;;;;3.35;1.60;;;9.40;81.90;;;;;;4936163;29;20027;-84
2022/11/18 08:06:07;;;;;;;2.35;1.30;;;9.40;81.90;;;;;;4940001;29;20058;-84
2022/11/18 08:08:33;;;;;;;3.42;1.55;;;9.40;81.80;;;;;;4956595;29;20024;-83
2022/11/18 08:11:05;;;;;;;3.33;1.52;;;9.40;81.80;;;;;;4921723;29;20149;-84
2022/11/18 08:13:30;;;;;;;4.45;2.22;;;9.50;81.80;;;;;;4948511;29;20462;-84
2022/11/18 08:15:56;;;;;;;4.85;1.13;;;9.50;81.70;;;;;;4939210;29;20058;-84
2022/11/18 08:18:23;;;;;;;3.20;1.50;;;9.50;81.70;;;;;;4957889;29;20033;-83
2022/11/18 08:20:48;;;;;;;3.97;1.70;;;9.50;81.60;;;;;;4942454;29;20031;-83
2022/11/18 08:23:15;;;;;;;5.00;1.70;;;9.60;81.60;;;;;;4945499;29;20030;-83
2022/11/18 08:25:42;;;;;;;5.85;1.38;;;9.60;81.60;;;;;;4957211;29;20038;-84
2022/11/18 08:28:08;;;;;;;5.03;1.25;;;9.60;81.60;;;;;;4957793;29;20513;-84
2022/11/18 08:30:35;;;;;;;4.35;1.60;;;9.60;81.60;;;;;;4956774;29;20110;-84
2022/11/18 08:33:00;;;;;;;2.97;1.38;;;9.60;81.60;;;;;;4943179;29;20031;-83
2022/11/18 08:35:27;;;;;;;3.72;1.50;;;9.70;81.50;;;;;;4938229;29;20028;-84
2022/11/18 08:37:54;;;;;;;3.78;1.38;;;9.70;81.40;;;;;;4936328;29;20028;-84
2022/11/18 08:40:20;;;;;;;3.80;1.48;;;9.70;81.40;;;;;;4938104;29;20036;-84
2022/11/18 08:42:45;;;;;;;6.95;1.75;;;9.70;81.30;;;;;;4940106;29;20525;-84
2022/11/18 08:45:11;;;;;;;8.00;1.65;;;9.80;81.40;;;;;;4953789;29;20031;-83
2022/11/18 08:47:37;;;;;;;5.63;1.88;;;9.80;81.30;;;;;;4939173;29;20437;-84
2022/11/18 08:50:05;;;;;;;5.18;1.98;;;9.80;81.40;;;;;;4954350;29;20102;-83
2022/11/18 08:52:31;;;;;;;6.95;1.60;;;9.80;81.00;;;;;;4939736;29;20027;-82
2022/11/18 08:54:57;;;;;;;2.63;1.55;;;9.90;81.20;;;;;;4938714;29;20050;-82
2022/11/18 08:57:23;;;;;;;2.53;1.58;;;9.90;80.90;;;;;;4940177;29;20031;-83
2022/11/18 08:59:48;;;;;;;4.05;1.73;;;10.00;80.90;;;;;;4936293;29;20042;-82
2022/11/18 09:02:16;;;;;;;2.45;1.50;;;10.00;80.70;;;;;;4938266;29;20099;-82
2022/11/18 09:04:42;;;;;;;6.50;1.50;;;10.00;80.70;;;;;;4948339;29;20032;-82
2022/11/18 09:07:07;;;;;;;10.40;1.65;;;10.10;81.00;;;;;;4957346;29;20030;-82
2022/11/18 09:09:33;;;;;;;6.80;1.70;;;10.10;80.80;;;;;;4956445;29;20501;-82
2022/11/18 09:11:58;;;;;;;3.85;1.33;;;10.20;80.70;;;;;;4950506;29;20091;-83
2022/11/18 09:14:24;;;;;;;4.93;1.65;;;10.20;80.50;;;;;;4957080;29;20062;-83
2022/11/18 09:16:50;;;;;;;6.70;1.50;;;10.20;80.30;;;;;;4956928;29;21559;-82
2022/11/18 09:19:16;;;;;;;3.10;1.60;;;10.30;80.40;;;;;;4956433;29;20062;-82
2022/11/18 09:21:42;;;;;;;3.88;1.42;;;10.30;80.20;;;;;;4950460;29;20023;-83
2022/11/18 09:24:09;;;;;;;6.65;1.50;;;10.30;80.00;;;;;;4957093;29;20035;-83
2022/11/18 09:26:36;;;;;;;4.97;1.08;;;10.40;79.80;;;;;;4939509;29;20046;-83
2022/11/18 09:29:02;;;;;;;5.68;0.98;;;10.50;80.00;;;;;;4956191;29;20039;-82
2022/11/18 09:31:27;;;;;;;4.60;1.17;;;10.50;79.70;;;;;;4953786;29;20054;-83
2022/11/18 09:33:53;;;;;;;5.32;1.58;;;10.50;79.30;;;;;;4939937;29;20454;-83
2022/11/18 09:36:22;;;;;;;2.88;1.35;;;10.60;79.50;;;;;;4956711;29;20083;-84
2022/11/18 09:38:48;;;;;;;3.95;1.38;;;10.70;79.70;;;;;;4957030;29;20031;-83
2022/11/18 09:41:16;;;;;;;6.28;1.25;;;10.70;79.00;;;;;;4956708;29;20066;-84
2022/11/18 09:43:59;;;;;;;5.88;1.20;;;10.70;78.90;;;;;;4956810;29;20023;-83
2022/11/18 09:47:06;;;;;;;3.67;1.20;;;10.80;79.00;;;;;;4938970;29;20028;-82
2022/11/18 09:49:37;;;;;;;4.93;1.95;;;10.80;78.90;;;;;;4863454;29;20105;-83
2022/11/18 09:52:25;;;;;;;5.13;1.05;;;10.90;78.80;;;;;;4920172;28;20039;-84
2022/11/18 09:54:51;;;;;;;5.38;0.90;;;10.90;78.80;;;;;;4953662;28;20089;-84
2022/11/18 09:57:20;;;;;;;2.03;0.82;;;11.00;78.60;;;;;;4957103;29;20035;-82
2022/11/18 09:59:46;;;;;;;7.05;1.48;;;11.00;77.70;;;;;;4951838;28;20042;-83
2022/11/18 10:02:27;;;;;;;4.45;1.83;;;11.10;77.80;;;;;;4939408;29;20087;-83
2022/11/18 10:04:55;;;;;;;2.75;1.63;;;11.10;77.60;;;;;;4950640;29;20055;-83
2022/11/18 10:07:46;;;;;;;6.20;1.40;;;11.20;77.90;;;;;;4960308;29;20095;-82
2022/11/18 10:10:18;;;;;;;4.55;1.17;;;11.20;77.60;;;;;;4942619;29;20038;-83
2022/11/18 10:13:03;;;;;;;5.05;2.08;;;11.20;77.40;;;;;;4953067;29;20031;-84
2022/11/18 10:16:02;;;;;;;3.05;1.17;;;11.30;77.10;;;;;;4941483;29;20112;-84
2022/11/18 10:18:54;;;;;;;6.13;1.25;;;11.30;77.50;;;;;;4937994;29;20035;-83
2022/11/18 10:21:44;;;;;;;6.70;1.40;;;11.30;77.10;;;;;;4915838;29;20035;-83
2022/11/18 10:24:20;;;;;;;;;;;11.40;77.00;;;;;;4959892;29;20023;-81
2022/11/18 10:26:46;;;;;;;4.97;1.98;;;11.50;77.10;;;;;;4959576;29;20453;-81
2022/11/18 10:29:12;;;;;;;4.35;1.20;;;11.50;76.60;;;;;;4959202;29;20058;-81
2022/11/18 10:31:51;;;;;;;3.75;1.20;;;11.50;76.40;;;;;;4938383;29;20146;-81
2022/11/18 10:34:18;;;;;;;3.58;1.23;;;11.60;76.60;;;;;;4936739;29;20510;-81
2022/11/18 10:36:58;;;;;;;5.50;1.05;;;11.70;76.30;;;;;;4938860;29;20035;-80
2022/11/18 10:39:24;;;;;;;8.80;1.40;;;11.70;76.30;;;;;;4939864;29;20114;-80
2022/11/18 10:41:52;;;;;;;5.70;0.88;;;11.70;76.00;;;;;;4926646;29;20111;-81
2022/11/18 10:44:29;;;;;;;7.25;1.02;;;11.70;75.90;;;;;;4921295;29;20533;-80
2022/11/18 10:47:13;;;;;;;4.40;1.20;;;11.70;76.10;;;;;;4939229;29;20099;-80
2022/11/18 10:49:39;;;;;;;6.35;0.82;;;11.80;76.30;;;;;;4935670;29;20036;-81
2022/11/18 10:52:10;;;;;;;3.33;0.88;;;11.80;76.00;;;;;;4926749;29;20617;-81
2022/11/18 10:54:36;;;;;;;6.03;1.20;;;11.80;75.80;;;;;;4958359;28;20127;-81
2022/11/18 10:57:18;;;;;;;5.93;2.22;;;11.90;75.60;;;;;;4940327;28;20031;-81
2022/11/18 10:59:56;;;;;;;3.60;1.27;;;11.90;75.20;;;;;;4939832;29;20039;-81
2022/11/18 11:02:38;;;;;;;5.85;2.35;;;11.90;75.40;;;;;;4935277;29;20110;-81
2022/11/18 11:05:17;;;;;;;5.43;1.80;;;12.00;74.80;;;;;;4924529;29;20515;-80
2022/11/18 11:07:45;;;;;;;11.45;2.20;;;12.00;74.70;;;;;;4933094;29;20123;-80
2022/11/18 11:10:11;;;;;;;5.13;1.13;;;12.00;75.00;;;;;;4932390;29;20040;-81
2022/11/18 11:13:08;;;;;;;8.55;1.42;;;12.10;74.60;;;;;;4938581;29;20075;-81
2022/11/18 11:15:46;;;;;;;5.25;1.77;;;12.10;74.40;;;;;;4938954;29;20032;-80
2022/11/18 11:21:16;;;;;;;6.85;1.73;;;12.20;73.70;;;;;;4932842;29;20035;-79
2022/11/18 11:23:43;;;;;;;5.10;1.83;;;12.20;73.40;;;;;;4934843;29;20028;-81
2022/11/18 11:26:14;;;;;;;5.10;1.42;;;12.10;73.60;;;;;;4937164;29;20032;-85
2022/11/18 11:28:55;;;;;;;3.72;1.20;;;12.10;73.90;;;;;;4942414;29;20035;-78
2022/11/18 11:31:59;;;;;;;4.40;1.33;;;12.10;73.90;;;;;;4937092;29;20066;-79
2022/11/18 11:34:48;;;;;;;3.85;1.40;;;12.20;74.00;;;;;;4920385;29;20514;-76
2022/11/18 11:37:48;;;;;;;6.28;1.17;;;12.20;73.90;;;;;;4939572;29;20511;-78
2022/11/18 11:40:43;;;;;;;4.28;1.00;;;12.30;73.60;;;;;;4939969;29;20063;-78
2022/11/18 11:43:30;;;;;;;4.55;1.25;;;12.30;73.50;;;;;;4920556;29;20485;-78
2022/11/18 11:46:31;;;;;;;7.85;1.48;;;12.40;73.80;;;;;;4938223;29;20030;-80
2022/11/18 11:49:36;;;;;;;7.88;1.35;;;12.50;73.40;;;;;;4942320;28;20046;-77
2022/11/18 11:52:14;;;;;;;4.38;1.20;;;12.50;73.30;;;;;;4952500;28;20113;-77
2022/11/18 11:55:08;;;;;;;4.22;1.00;;;12.50;73.50;;;;;;4967954;28;20039;-78
2022/11/18 11:57:42;;;;;;;7.10;1.85;;;12.50;73.10;;;;;;4936407;29;20046;-82
2022/11/18 12:00:13;;;;;;;2.45;1.48;;;12.50;72.90;;;;;;4958060;29;20039;-77
2022/11/18 12:02:48;;;;;;;4.05;1.05;;;12.60;73.10;;;;;;4957625;29;20019;-82
2022/11/18 12:05:35;;;;;;;4.80;1.58;;;12.60;72.50;;;;;;4956533;29;20158;-80
2022/11/18 12:08:05;;;;;;;6.68;2.00;;;12.70;72.60;;;;;;4947867;29;20365;-79
2022/11/18 12:10:41;;;;;;;6.03;1.98;;;12.70;72.30;;;;;;4944415;29;20110;-80
2022/11/18 12:13:13;;;;;;;5.78;2.28;;;12.70;72.40;;;;;;4930361;29;20110;-80
2022/11/18 12:16:12;;;;;;;3.90;1.50;;;12.80;72.20;;;;;;4947275;29;20032;-80
2022/11/18 12:19:01;;;;;;;2.90;1.10;;;12.80;71.90;;;;;;4947496;29;20035;-80
2022/11/18 12:21:45;;;;;;;6.43;1.33;;;12.80;72.50;;;;;;4947797;28;20019;-80
2022/11/18 12:24:29;;;;;;;6.03;1.08;;;12.80;72.30;;;;;;4948444;29;20486;-80
2022/11/18 12:27:02;;;;;;;1.90;1.10;;;12.90;72.30;;;;;;4930673;29;20035;-80
2022/11/18 12:29:49;;;;;;;8.57;1.65;;;13.00;72.10;;;;;;4947646;29;20038;-79
2022/11/18 12:32:44;;;;;;;5.85;1.52;;;13.10;72.00;;;;;;4945232;29;20052;-79
2022/11/18 12:35:12;;;;;;;3.67;1.02;;;13.10;71.80;;;;;;4948217;29;20119;-79
2022/11/18 12:37:55;;;;;;;7.57;2.83;;;13.20;71.80;;;;;;4949985;29;20186;-80
2022/11/18 12:40:40;;;;;;;7.57;1.90;;;13.30;71.10;;;;;;4940379;29;20023;-79
2022/11/18 12:43:47;;;;;;;6.53;1.40;;;13.30;70.50;;;;;;4956636;29;20035;-80
2022/11/18 12:46:37;;;;;;;2.92;1.30;;;13.30;70.70;;;;;;4939881;29;20031;-79
2022/11/18 12:49:21;;;;;;;3.88;1.27;;;13.30;70.60;;;;;;4921196;29;20057;-78
2022/11/18 12:51:58;;;;;;;3.70;1.33;;;13.40;70.00;;;;;;4939151;28;20106;-79
2022/11/18 12:54:43;;;;;;;4.03;1.15;;;13.50;69.90;;;;;;4946864;29;20532;-78
2022/11/18 12:57:33;;;;;;;4.05;1.30;;;13.60;68.80;;;;;;4957485;29;20027;-79
2022/11/18 13:00:15;;;;;;;8.73;1.95;;;13.60;69.50;;;;;;4940019;29;20031;-79
2022/11/18 13:02:53;;;;;;;4.03;1.25;;;13.60;69.60;;;;;;4948822;29;20035;-78
2022/11/18 13:05:20;;;;;;;5.68;0.93;;;13.60;69.20;;;;;;4936876;29;20082;-79
2022/11/18 13:08:12;;;;;;;7.03;1.08;;;13.70;68.80;;;;;;4937404;29;20106;-79
2022/11/18 13:13:41;;;;;;;5.10;1.60;;;13.70;66.80;;;;;;4957446;29;20113;-80
2022/11/18 13:19:03;;;;;;;6.97;2.25;;;13.60;66.60;;;;;;4938126;29;20031;-79
2022/11/18 13:24:20;;;;;;;5.28;1.65;;;13.50;66.40;;;;;;4966010;28;20031;-79
2022/11/18 13:26:52;;;;;;;3.10;1.30;;;13.40;66.10;;;;;;4937738;29;20024;-79
2022/11/18 13:29:33;;;;;;;6.40;1.52;;;13.30;66.70;;;;;;4922545;29;20399;-79
2022/11/18 13:32:12;;;;;;;8.40;2.45;;;13.30;66.00;;;;;;4957341;29;20566;-79
2022/11/18 13:34:52;;;;;;;7.32;1.95;;;13.20;66.70;;;;;;4958767;28;20487;-79
2022/11/18 13:37:25;;;;;;;8.70;2.20;;;13.00;67.20;;;;;;4960942;29;20046;-80
2022/11/18 13:39:51;;;;;;;8.60;1.42;;;12.90;67.70;;;;;;4943523;29;20027;-79
2022/11/18 13:42:21;;;;;;;5.00;1.23;;;13.00;67.40;;;;;;4960364;29;20027;-79
2022/11/18 13:44:58;;;;;;;7.03;1.83;;;13.00;67.40;;;;;;4960289;29;20047;-79
2022/11/18 13:47:50;;;;;;;3.55;1.50;;;13.20;67.00;;;;;;4960328;29;20027;-79
2022/11/18 13:50:39;;;;;;;2.42;0.88;;;13.20;67.80;;;;;;4950907;29;20032;-79
2022/11/18 13:53:11;;;;;;;4.35;0.98;;;13.30;67.10;;;;;;4954126;28;20027;-79
2022/11/18 13:55:50;;;;;;;5.38;1.45;;;13.30;66.90;;;;;;4962494;28;20022;-79
2022/11/18 13:58:18;;;;;;;4.60;1.45;;;13.30;67.10;;;;;;4962080;28;20038;-79
2022/11/18 14:00:59;;;;;;;4.63;1.50;;;13.20;66.70;;;;;;4940366;29;20036;-79
2022/11/18 14:03:51;;;;;;;2.83;1.63;;;13.10;67.00;;;;;;4941348;29;20024;-80
2022/11/18 14:06:29;;;;;;;6.65;1.48;;;13.10;67.60;;;;;;4914693;29;20063;-80
2022/11/18 14:09:10;;;;;;;4.85;1.02;;;13.10;66.90;;;;;;4941552;29;20031;-80
2022/11/18 14:11:43;;;;;;;1.60;1.10;;;13.00;67.40;;;;;;4938581;29;20484;-80
2022/11/18 14:14:11;;;;;;;5.80;0.93;;;13.00;67.60;;;;;;4959360;29;20106;-80
2022/11/18 14:16:41;;;;;;;2.03;1.05;;;12.90;67.90;;;;;;4942535;29;20399;-80
2022/11/18 14:19:28;;;;;;;4.40;1.20;;;12.90;67.70;;;;;;4959362;29;20027;-79
2022/11/18 14:22:02;;;;;;;3.90;1.23;;;12.80;67.70;;;;;;4960071;29;20118;-80
2022/11/18 14:24:28;;;;;;;3.13;0.82;;;12.80;68.10;;;;;;4942464;29;20475;-79
2022/11/18 14:26:54;;;;;;;5.97;3.65;;;12.70;68.10;;;;;;4960009;29;20058;-80
2022/11/18 14:29:21;;;;;;;6.75;4.00;;;12.70;68.30;;;;;;4959786;29;20030;-79
2022/11/18 14:32:15;;;;;;;7.28;2.03;;;12.70;68.90;;;;;;4959936;29;20055;-80
2022/11/18 14:34:41;;;;;;;2.88;1.10;;;12.60;68.70;;;;;;4940740;29;20038;-79
2022/11/18 14:37:14;;;;;;;2.42;1.13;;;12.60;68.70;;;;;;4940421;29;20115;-80
2022/11/18 14:39:40;;;;;;;3.15;0.90;;;12.50;69.50;;;;;;4923396;29;20087;-79
2022/11/18 14:42:12;;;;;;;4.25;0.90;;;12.60;69.50;;;;;;4959046;29;20130;-79
2022/11/18 14:44:37;;;;;;;3.95;0.98;;;12.60;69.70;;;;;;4958516;28;20023;-79
2022/11/18 14:47:13;;;;;;;3.63;1.40;;;12.60;69.60;;;;;;4959639;29;20023;-79
2022/11/18 14:49:38;;;;;;;4.00;1.90;;;12.60;69.50;;;;;;4959202;29;20515;-79
2022/11/18 14:52:05;;;;;;;3.13;1.42;;;12.60;69.30;;;;;;4962340;28;20099;-79
2022/11/18 14:54:30;;;;;;;3.00;0.90;;;12.70;69.80;;;;;;4941592;29;20036;-79
2022/11/18 14:57:00;;;;;;;3.88;1.50;;;12.70;69.40;;;;;;4959297;29;20121;-79
2022/11/18 14:59:26;;;;;;;3.05;1.73;;;12.60;69.80;;;;;;4959241;29;20027;-79
2022/11/18 15:01:52;;;;;;;4.45;1.80;;;12.60;70.10;;;;;;4941639;29;20079;-78
2022/11/18 15:04:19;;;;;;;4.97;1.90;;;12.60;70.50;;;;;;4941980;29;20513;-79
2022/11/18 15:06:45;;;;;;;4.15;2.22;;;12.60;70.60;;;;;;4941680;29;20492;-79
2022/11/18 15:09:11;;;;;;;3.10;1.63;;;12.60;70.90;;;;;;4958923;29;20098;-79
2022/11/18 15:11:37;;;;;;;5.50;1.65;;;12.60;70.80;;;;;;4959117;29;20028;-79
2022/11/18 15:14:02;;;;;;;3.95;1.63;;;12.60;70.80;;;;;;4942025;29;20488;-79
2022/11/18 15:16:32;;;;;;;6.72;2.13;;;12.50;71.10;;;;;;4945387;29;20036;-79
2022/11/18 15:19:00;;;;;;;6.68;1.45;;;12.50;71.30;;;;;;4959297;29;20483;-79
2022/11/18 15:21:26;;;;;;;5.32;1.50;;;12.70;71.40;;;;;;4958420;29;20038;-79
2022/11/18 15:23:52;;;;;;;7.13;1.63;;;12.70;71.30;;;;;;4958678;29;20031;-80
2022/11/18 15:26:22;;;;;;;4.03;1.00;;;12.70;70.90;;;;;;4941606;29;20038;-79
2022/11/18 15:28:50;;;;;;;3.97;1.35;;;12.80;69.50;;;;;;4958752;29;20411;-79
2022/11/18 15:31:16;;;;;;;4.10;1.45;;;12.70;69.60;;;;;;4940783;29;20102;-80
2022/11/18 15:33:43;;;;;;;3.30;1.55;;;12.70;68.80;;;;;;4958840;29;20130;-80
2022/11/18 15:36:17;;;;;;;5.22;1.50;;;12.50;68.40;;;;;;4941433;29;20473;-79
2022/11/18 15:38:43;;;;;;;6.32;0.90;;;12.40;68.00;;;;;;4941456;29;20059;-79
2022/11/18 15:41:21;;;;;;;2.10;0.90;;;12.30;68.10;;;;;;4922482;29;20515;-79
2022/11/18 15:43:48;;;;;;;7.85;1.20;;;12.20;69.20;;;;;;4942812;29;20787;-79
2022/11/18 15:46:15;;;;;;;1.85;1.42;;;12.10;69.70;;;;;;4958512;29;20028;-79
2022/11/18 15:48:41;;;;;;;2.97;2.38;;;12.00;69.70;;;;;;4940377;29;20038;-79
2022/11/18 15:51:07;;;;;;;8.57;3.10;;;12.00;69.80;;;;;;4958439;29;20023;-80
2022/11/18 15:53:32;;;;;;;2.53;2.22;;;11.90;70.10;;;;;;4972922;28;20034;-79
2022/11/18 15:56:20;;;;;;;3.00;1.75;;;11.90;70.30;;;;;;4957649;28;20027;-79
2022/11/18 15:58:57;;;;;;;4.13;1.67;;;11.90;70.40;;;;;;4940373;29;20157;-79
2022/11/18 16:01:24;;;;;;;6.70;2.30;;;11.80;70.30;;;;;;4957407;29;20039;-79
2022/11/18 16:03:50;;;;;;;6.75;2.83;;;11.80;70.60;;;;;;4946107;29;20051;-77
2022/11/18 16:06:16;;;;;;;2.65;1.58;;;11.80;70.90;;;;;;4954472;29;20035;-78
2022/11/18 16:08:42;;;;;;;2.42;1.15;;;11.80;71.00;;;;;;4955486;29;20027;-78
2022/11/18 16:14:08;;;;;;;4.40;1.55;;;11.70;71.30;;;;;;4957863;29;20041;-77
2022/11/18 16:16:35;;;;;;;4.15;1.80;;;11.70;71.50;;;;;;4955889;29;20102;-78
2022/11/18 16:19:04;;;;;;;2.33;1.63;;;11.60;71.70;;;;;;4940002;29;20431;-77
2022/11/18 16:21:33;;;;;;;2.78;1.35;;;11.60;72.10;;;;;;4956891;29;20027;-77
2022/11/18 16:24:00;;;;;;;2.92;1.65;;;11.50;72.50;;;;;;4954667;29;20674;-78
2022/11/18 16:26:29;;;;;;;2.08;1.77;;;11.30;72.70;;;;;;4933608;29;20028;-78
2022/11/18 16:28:55;;;;;;;7.13;1.52;;;11.30;73.00;;;;;;4948983;29;20127;-77
2022/11/18 16:31:39;;;;;;;6.95;1.90;;;11.30;73.30;;;;;;4946590;29;20039;-77
2022/11/18 16:34:19;;;;;;;5.53;1.77;;;11.20;73.30;;;;;;4951330;29;20522;-77
2022/11/18 16:36:51;;;;;;;3.40;1.85;;;11.10;73.50;;;;;;4952034;29;20035;-78
2022/11/18 16:39:23;;;;;;;4.55;2.10;;;11.10;73.70;;;;;;4957392;29;20082;-84
2022/11/18 16:41:53;;;;;;;7.13;2.72;;;11.00;73.80;;;;;;4955733;29;20042;-79
2022/11/18 16:44:19;;;;;;;3.92;2.10;;;10.90;74.00;;;;;;4953488;29;20611;-76
2022/11/18 16:46:51;;;;;;;7.03;2.50;;;10.90;74.20;;;;;;4950579;28;20072;-77
2022/11/18 16:49:18;;;;;;;7.78;3.30;;;10.90;74.40;;;;;;4950837;29;20492;-77
2022/11/18 16:51:46;;;;;;;9.93;3.88;;;10.90;74.50;;;;;;4954008;28;20549;-77
2022/11/18 16:54:27;;;;;;;9.63;4.47;;;10.80;74.60;;;;;;4959305;28;20106;-76
2022/11/18 16:56:55;;;;;;;7.18;3.92;;;10.80;74.80;;;;;;4937073;29;20058;-77
2022/11/18 16:59:23;;;;;;;9.88;5.18;;;10.80;74.90;;;;;;4933178;29;20037;-78
2022/11/18 17:01:51;;;;;;;11.30;5.63;;;10.80;74.90;;;;;;4950279;29;20484;-78
2022/11/18 17:04:18;;;;;;;9.98;4.95;;;10.70;75.20;;;;;;4931254;29;20027;-77
2022/11/18 17:06:45;;;;;;;11.38;6.13;;;10.70;74.90;;;;;;4942512;28;20019;-77
2022/11/18 17:09:16;;;;;;;6.93;5.20;;;10.70;74.80;;;;;;4953077;28;20132;-77
2022/11/18 17:11:41;;;;;;;9.65;6.60;;;10.60;74.90;;;;;;4959828;28;20062;-77
2022/11/18 17:14:07;;;;;;;10.13;5.82;;;10.60;75.20;;;;;;4956019;28;20066;-76
2022/11/18 17:16:33;;;;;;;11.48;7.65;;;10.50;75.30;;;;;;4938687;29;20114;-78
2022/11/18 17:18:59;;;;;;;21.83;10.02;;;10.50;75.20;;;;;;4954363;28;20067;-75
2022/11/18 17:21:26;;;;;;;10.73;6.70;;;10.50;75.30;;;;;;4958573;28;20035;-79
2022/11/18 17:23:52;;;;;;;10.95;5.90;;;10.40;75.30;;;;;;4959189;29;20071;-77
2022/11/18 17:26:21;;;;;;;12.88;6.78;;;10.30;75.30;;;;;;4939987;29;20031;-77
2022/11/18 17:28:47;;;;;;;11.82;7.30;;;10.30;75.30;;;;;;4959521;29;20035;-77
2022/11/18 17:31:20;;;;;;;15.05;8.38;;;10.20;75.40;;;;;;4950211;28;20082;-77
2022/11/18 17:33:47;;;;;;;18.63;10.48;;;10.20;75.70;;;;;;4952994;28;20046;-77
2022/11/18 17:36:15;;;;;;;13.95;8.95;;;10.20;75.50;;;;;;4940865;29;20035;-77
2022/11/18 17:38:43;;;;;;;18.15;9.38;;;10.10;75.60;;;;;;4938494;29;20031;-77
2022/11/18 17:43:55;;;;;;;16.00;9.10;;;10.10;75.90;;;;;;4959659;29;20102;-77
2022/11/18 17:46:20;;;;;;;12.63;8.57;;;10.00;75.80;;;;;;4943122;29;20838;-77
2022/11/18 17:48:46;;;;;;;16.48;10.30;;;10.00;76.40;;;;;;4960663;29;20023;-77
2022/11/18 17:51:11;;;;;;;13.95;10.63;;;10.00;76.20;;;;;;4960141;28;20106;-78
2022/11/18 17:53:37;;;;;;;15.43;9.07;;;10.00;76.40;;;;;;4975767;28;20034;-77
2022/11/18 17:56:06;;;;;;;14.93;8.85;;;10.00;76.60;;;;;;4964105;28;20526;-78
2022/11/18 17:58:32;;;;;;;18.70;9.30;;;10.10;76.40;;;;;;4959481;29;20145;-78
2022/11/18 18:01:09;;;;;;;15.82;8.32;;;10.10;76.30;;;;;;4939045;29;20024;-78
2022/11/18 18:03:35;;;;;;;22.73;12.90;;;10.10;76.30;;;;;;4949100;29;20063;-76
2022/11/18 18:06:04;;;;;;;31.13;16.20;;;10.20;76.50;;;;;;4945141;28;20030;-79
2022/11/18 18:08:30;;;;;;;32.63;17.02;;;10.20;76.50;;;;;;4958302;29;20114;-77
2022/11/18 18:11:04;;;;;;;84.10;30.63;;;10.30;76.50;;;;;;4959731;28;20030;-76
2022/11/18 18:16:14;;;;;;;78.88;29.67;;;10.30;76.50;;;;;;4953464;28;20086;-76
2022/11/18 18:18:41;;;;;;;71.20;32.67;;;10.30;76.60;;;;;;4942619;28;20035;-76
2022/11/18 18:21:07;;;;;;;66.97;30.95;;;10.30;76.50;;;;;;4937834;29;20646;-79
2022/11/18 18:23:34;;;;;;;58.20;29.23;;;10.20;76.60;;;;;;4954030;28;20031;-77
2022/11/18 18:26:01;;;;;;;54.30;25.90;;;10.20;76.70;;;;;;4954534;28;20038;-75
2022/11/18 18:28:31;;;;;;;42.65;21.45;;;10.20;76.70;;;;;;4935752;29;20584;-75
2022/11/18 18:31:02;;;;;;;35.20;19.77;;;10.20;76.70;;;;;;4950492;28;20079;-76
2022/11/18 18:33:28;;;;;;;33.47;19.83;;;10.20;76.60;;;;;;4932121;29;20562;-75
2022/11/18 18:35:57;;;;;;;37.53;19.50;;;10.10;76.40;;;;;;4951217;28;20635;-75
2022/11/18 18:38:23;;;;;;;32.33;17.60;;;10.10;76.50;;;;;;4934387;29;20088;-82
2022/11/18 18:40:49;;;;;;;32.05;16.83;;;10.00;76.60;;;;;;4949630;28;20039;-76
2022/11/18 18:43:15;;;;;;;30.85;15.93;;;10.00;76.50;;;;;;4931253;29;20020;-79
2022/11/18 18:48:25;;;;;;;32.00;18.52;;;9.90;76.80;;;;;;4952226;29;20031;-79
2022/11/18 18:50:50;;;;;;;31.95;18.35;;;9.80;77.00;;;;;;4952575;28;20852;-77
2022/11/18 18:53:16;;;;;;;36.17;20.60;;;9.80;76.70;;;;;;4952125;29;20038;-77
2022/11/18 18:55:42;;;;;;;41.88;23.85;;;9.70;76.80;;;;;;4958962;28;20042;-78
2022/11/18 18:58:07;;;;;;;41.72;24.15;;;9.70;76.90;;;;;;4942318;29;20031;-78
2022/11/18 19:00:33;;;;;;;32.13;20.85;;;9.70;77.20;;;;;;4959334;28;20114;-81
2022/11/18 19:02:59;;;;;;;40.95;21.77;;;9.60;76.80;;;;;;4959665;28;20495;-79
2022/11/18 19:05:26;;;;;;;47.40;25.67;;;9.60;77.00;;;;;;4959137;29;20023;-76
2022/11/18 19:07:51;;;;;;;56.70;28.38;;;9.60;77.00;;;;;;4959698;28;20443;-78
2022/11/18 19:10:18;;;;;;;47.88;26.05;;;9.50;77.00;;;;;;4958953;29;20035;-79